Time;durP1;ratioP1;P1;durP2;ratioP2;P2;SDS_P1;SDS_P2;PMS_P1;PMS_P2;Temp;Humidity;BMP_temperature;BMP_pressure;BME280_temperature;BME280_humidity;BME280_pressure;Samples;Min_cycle;Max_cycle;Signal;HPM_P1;HPM_P2
2022/07/06 00:00:45;;;;;;;10.17;4.20;;;;;;;;;;3366684;42;20131;-58
2022/07/06 00:03:11;;;;;;;10.70;4.60;;;;;;;;;;3367129;42;20177;-57
2022/07/06 00:05:37;;;;;;;11.00;4.35;;;;;;;;;;3367028;42;20084;-59
2022/07/06 00:08:03;;;;;;;13.23;4.20;;;;;;;;;;3367265;42;20093;-56
2022/07/06 00:10:29;;;;;;;16.02;7.07;;;;;;;;;;3367347;42;20088;-58
2022/07/06 00:12:55;;;;;;;15.25;6.07;;;;;;;;;;3367108;42;20497;-57
2022/07/06 00:15:21;;;;;;;12.18;4.45;;;;;;;;;;3367668;42;20080;-60
2022/07/06 00:17:47;;;;;;;10.80;3.80;;;;;;;;;;3368011;42;20501;-56
2022/07/06 00:20:13;;;;;;;9.30;4.10;;;;;;;;;;3359678;42;20142;-59
2022/07/06 00:22:39;;;;;;;10.45;3.75;;;;;;;;;;3368382;42;20088;-57
2022/07/06 00:25:06;;;;;;;9.40;4.00;;;;;;;;;;3368034;42;20103;-57
2022/07/06 00:27:31;;;;;;;10.03;3.83;;;;;;;;;;3368609;42;20092;-58
2022/07/06 00:29:57;;;;;;;10.68;3.88;;;;;;;;;;3368402;42;20131;-60
2022/07/06 00:32:25;;;;;;;9.43;3.95;;;;;;;;;;3368360;42;20087;-58
2022/07/06 00:34:51;;;;;;;9.20;3.80;;;;;;;;;;3367993;42;20091;-59
2022/07/06 00:37:17;;;;;;;11.23;3.80;;;;;;;;;;3368011;42;20080;-59
2022/07/06 00:39:43;;;;;;;10.05;4.20;;;;;;;;;;3367656;42;20076;-59
2022/07/06 00:42:09;;;;;;;12.90;4.15;;;;;;;;;;3367048;42;20127;-58
2022/07/06 00:44:35;;;;;;;16.63;4.30;;;;;;;;;;3372422;42;20080;-57
2022/07/06 00:47:01;;;;;;;9.00;4.20;;;;;;;;;;3366768;42;20072;-58
2022/07/06 00:52:11;;;;;;;11.82;4.20;;;;;;;;;;3367199;42;20099;-59
2022/07/06 00:54:37;;;;;;;11.55;4.10;;;;;;;;;;3350425;42;20122;-58
2022/07/06 00:57:03;;;;;;;11.47;4.10;;;;;;;;;;3346496;42;20076;-57
2022/07/06 00:59:29;;;;;;;14.03;6.40;;;;;;;;;;3366801;42;20276;-57
2022/07/06 01:01:55;;;;;;;12.32;4.90;;;;;;;;;;3358054;42;20251;-58
2022/07/06 01:04:21;;;;;;;10.13;4.00;;;;;;;;;;3366770;42;20514;-57
2022/07/06 01:06:47;;;;;;;10.32;4.13;;;;;;;;;;3366878;42;20556;-56
2022/07/06 01:09:13;;;;;;;12.17;4.57;;;;;;;;;;3353238;42;20589;-58
2022/07/06 01:11:39;;;;;;;10.38;4.80;;;;;;;;;;3366972;42;20099;-58
2022/07/06 01:14:05;;;;;;;13.40;4.60;;;;;;;;;;3358090;42;20573;-59
2022/07/06 01:16:31;;;;;;;9.98;4.25;;;;;;;;;;3344588;42;20103;-58
2022/07/06 01:18:57;;;;;;;10.10;3.97;;;;;;;;;;3357665;42;20206;-58
2022/07/06 01:21:23;;;;;;;8.82;3.80;;;;;;;;;;3367036;42;20115;-58
2022/07/06 01:23:49;;;;;;;9.30;3.92;;;;;;;;;;3366161;42;20083;-57
2022/07/06 01:26:18;;;;;;;9.68;4.00;;;;;;;;;;3366161;42;20555;-58
2022/07/06 01:28:45;;;;;;;10.00;3.90;;;;;;;;;;3363370;42;20091;-56
2022/07/06 01:31:22;;;;;;;11.27;3.88;;;;;;;;;;3366914;42;20095;-58
2022/07/06 01:33:51;;;;;;;10.52;3.65;;;;;;;;;;3366772;42;20100;-58
2022/07/06 01:36:17;;;;;;;10.40;3.92;;;;;;;;;;3358022;42;20088;-58
2022/07/06 01:38:50;;;;;;;9.05;3.88;;;;;;;;;;3350733;42;20087;-58
2022/07/06 01:41:17;;;;;;;11.67;3.73;;;;;;;;;;3365673;42;20562;-56
2022/07/06 01:43:43;;;;;;;10.30;3.90;;;;;;;;;;3366421;42;20146;-59
2022/07/06 01:46:09;;;;;;;8.88;3.60;;;;;;;;;;3366676;42;20143;-58
2022/07/06 01:48:36;;;;;;;10.30;3.95;;;;;;;;;;3366673;42;20553;-57
2022/07/06 01:51:02;;;;;;;10.80;3.63;;;;;;;;;;3366879;42;20155;-60
2022/07/06 01:53:28;;;;;;;10.70;3.80;;;;;;;;;;3366665;42;20099;-59
2022/07/06 01:55:54;;;;;;;9.50;3.60;;;;;;;;;;3366757;42;20119;-60
2022/07/06 01:58:20;;;;;;;9.00;3.90;;;;;;;;;;3366833;42;20113;-58
2022/07/06 02:00:46;;;;;;;10.15;4.20;;;;;;;;;;3366566;42;20621;-58
2022/07/06 02:03:11;;;;;;;8.60;4.00;;;;;;;;;;3366688;42;20092;-57
2022/07/06 02:05:37;;;;;;;11.60;3.80;;;;;;;;;;3366810;42;20087;-57
2022/07/06 02:08:03;;;;;;;8.75;3.45;;;;;;;;;;3366656;42;20139;-57
2022/07/06 02:10:29;;;;;;;8.60;3.50;;;;;;;;;;3366698;42;20543;-58
2022/07/06 02:12:55;;;;;;;8.87;3.77;;;;;;;;;;3366520;42;20155;-58
2022/07/06 02:15:21;;;;;;;7.40;3.53;;;;;;;;;;3366919;42;20139;-58
2022/07/06 02:17:47;;;;;;;8.55;3.30;;;;;;;;;;3367540;42;20088;-57
2022/07/06 02:20:13;;;;;;;8.35;3.35;;;;;;;;;;3367661;42;20546;-59
2022/07/06 02:22:39;;;;;;;11.00;3.20;;;;;;;;;;3366824;42;20591;-57
2022/07/06 02:25:06;;;;;;;9.68;3.30;;;;;;;;;;3358161;42;20080;-57
2022/07/06 02:27:31;;;;;;;8.32;3.45;;;;;;;;;;3366569;42;20585;-57
2022/07/06 02:29:57;;;;;;;8.18;3.20;;;;;;;;;;3366597;42;20139;-57
2022/07/06 02:32:23;;;;;;;9.37;3.23;;;;;;;;;;3367503;42;20166;-57
2022/07/06 02:34:49;;;;;;;11.20;3.60;;;;;;;;;;3366424;42;20166;-56
2022/07/06 02:37:15;;;;;;;10.88;2.90;;;;;;;;;;3357671;42;20080;-58
2022/07/06 02:39:41;;;;;;;8.90;2.90;;;;;;;;;;3366444;42;20135;-60
2022/07/06 02:42:07;;;;;;;9.15;3.10;;;;;;;;;;3366309;42;20084;-57
2022/07/06 02:44:33;;;;;;;10.73;3.17;;;;;;;;;;3366379;42;20102;-58
2022/07/06 02:46:59;;;;;;;9.82;3.10;;;;;;;;;;3366629;42;20131;-58
2022/07/06 02:49:25;;;;;;;8.30;3.00;;;;;;;;;;3357727;42;20144;-59
2022/07/06 02:51:51;;;;;;;8.07;2.70;;;;;;;;;;3366703;42;20096;-56
2022/07/06 02:54:17;;;;;;;8.77;2.75;;;;;;;;;;3366541;42;20088;-57
2022/07/06 02:56:44;;;;;;;8.23;2.60;;;;;;;;;;3366771;42;20525;-56
2022/07/06 02:59:10;;;;;;;5.97;2.50;;;;;;;;;;3366409;42;20103;-56
2022/07/06 03:01:35;;;;;;;5.65;2.30;;;;;;;;;;3368643;42;20096;-58
2022/07/06 03:04:01;;;;;;;7.80;2.40;;;;;;;;;;3368186;42;20167;-57
2022/07/06 03:06:27;;;;;;;7.60;2.53;;;;;;;;;;3359135;42;20111;-58
2022/07/06 03:08:53;;;;;;;8.45;2.00;;;;;;;;;;3368322;42;20084;-58
2022/07/06 03:11:19;;;;;;;9.50;2.10;;;;;;;;;;3369722;42;20566;-56
2022/07/06 03:13:45;;;;;;;10.67;2.17;;;;;;;;;;3369552;42;20524;-58
2022/07/06 03:16:11;;;;;;;6.25;2.13;;;;;;;;;;3369877;42;20546;-58
2022/07/06 03:18:37;;;;;;;6.50;1.95;;;;;;;;;;3369633;42;20142;-57
2022/07/06 03:21:03;;;;;;;5.50;1.80;;;;;;;;;;3369665;42;20185;-58
2022/07/06 03:23:30;;;;;;;6.07;1.80;;;;;;;;;;3370021;42;20094;-57
2022/07/06 03:25:56;;;;;;;8.98;2.08;;;;;;;;;;3369510;42;20103;-58
2022/07/06 03:28:22;;;;;;;6.28;1.80;;;;;;;;;;3369235;42;20099;-58
2022/07/06 03:30:48;;;;;;;7.70;2.05;;;;;;;;;;3369280;42;20079;-58
2022/07/06 03:33:14;;;;;;;7.00;1.75;;;;;;;;;;3369002;42;20091;-57
2022/07/06 03:35:40;;;;;;;9.73;2.00;;;;;;;;;;3368372;42;20155;-57
2022/07/06 03:38:06;;;;;;;10.30;1.77;;;;;;;;;;3368954;42;20117;-58
2022/07/06 03:40:32;;;;;;;7.05;1.75;;;;;;;;;;3368912;42;20553;-62
2022/07/06 03:42:58;;;;;;;10.73;1.80;;;;;;;;;;3369179;42;20092;-58
2022/07/06 03:45:24;;;;;;;9.55;1.90;;;;;;;;;;3369517;42;20135;-56
2022/07/06 03:47:50;;;;;;;6.53;1.90;;;;;;;;;;3368671;42;20143;-56
2022/07/06 03:50:16;;;;;;;6.65;1.70;;;;;;;;;;3368539;42;20168;-58
2022/07/06 03:52:41;;;;;;;6.87;1.50;;;;;;;;;;3368284;42;20215;-60
2022/07/06 03:55:09;;;;;;;4.97;1.50;;;;;;;;;;3366333;42;20095;-57
2022/07/06 03:57:35;;;;;;;4.88;1.48;;;;;;;;;;3352806;42;20107;-59
2022/07/06 04:00:02;;;;;;;6.53;1.80;;;;;;;;;;3367720;42;20158;-58
2022/07/06 04:02:28;;;;;;;8.30;1.60;;;;;;;;;;3367773;42;20102;-57
2022/07/06 04:04:54;;;;;;;7.70;1.50;;;;;;;;;;3367823;42;20146;-57
2022/07/06 04:07:20;;;;;;;4.55;1.40;;;;;;;;;;3367471;42;20338;-59
2022/07/06 04:09:46;;;;;;;8.93;1.50;;;;;;;;;;3367335;42;20095;-58
2022/07/06 04:12:12;;;;;;;7.93;1.53;;;;;;;;;;3367161;42;20143;-60
2022/07/06 04:14:38;;;;;;;6.45;1.50;;;;;;;;;;3367823;42;20091;-59
2022/07/06 04:17:51;;;;;;;5.07;1.65;;;;;;;;;;3367631;42;20170;-59
2022/07/06 04:19:50;;;;;;;5.20;1.88;;;;;;;;;;3362915;42;20594;-60
2022/07/06 04:22:16;;;;;;;5.27;1.50;;;;;;;;;;3368137;42;20110;-60
2022/07/06 04:24:42;;;;;;;8.50;1.60;;;;;;;;;;3367673;42;20079;-58
2022/07/06 04:27:08;;;;;;;5.53;1.60;;;;;;;;;;3367785;42;20186;-60
2022/07/06 04:29:34;;;;;;;5.97;1.63;;;;;;;;;;3367707;42;20080;-59
2022/07/06 04:32:00;;;;;;;6.53;1.30;;;;;;;;;;3368142;42;20113;-58
2022/07/06 04:34:26;;;;;;;5.22;1.80;;;;;;;;;;3367952;42;20114;-59
2022/07/06 04:36:52;;;;;;;8.35;1.70;;;;;;;;;;3367873;42;20189;-54
2022/07/06 04:39:18;;;;;;;6.33;1.60;;;;;;;;;;3367957;42;20186;-59
2022/07/06 04:41:44;;;;;;;6.07;1.65;;;;;;;;;;3367775;42;20162;-61
2022/07/06 04:44:10;;;;;;;7.03;1.58;;;;;;;;;;3368245;42;20095;-49
2022/07/06 04:46:36;;;;;;;6.17;1.50;;;;;;;;;;3367933;42;20115;-50
2022/07/06 04:49:02;;;;;;;5.45;1.50;;;;;;;;;;3368227;42;20096;-52
2022/07/06 04:51:28;;;;;;;6.22;1.45;;;;;;;;;;3367425;42;20107;-52
2022/07/06 04:53:54;;;;;;;6.67;1.50;;;;;;;;;;3367014;42;20169;-52
2022/07/06 04:56:19;;;;;;;5.10;1.60;;;;;;;;;;3367694;42;20299;-57
2022/07/06 04:58:45;;;;;;;5.20;1.73;;;;;;;;;;3367258;42;20091;-50
2022/07/06 05:01:11;;;;;;;8.90;1.48;;;;;;;;;;3367607;42;20092;-48
2022/07/06 05:03:40;;;;;;;9.37;2.50;;;;;;;;;;3366382;42;20083;-50
2022/07/06 05:06:06;;;;;;;7.22;1.52;;;;;;;;;;3367626;42;20111;-52
2022/07/06 05:08:33;;;;;;;7.82;1.38;;;;;;;;;;3368115;42;20092;-53
2022/07/06 05:10:59;;;;;;;5.93;1.60;;;;;;;;;;3367020;42;20600;-53
2022/07/06 05:13:25;;;;;;;4.45;1.40;;;;;;;;;;3367061;42;20563;-51
2022/07/06 05:15:51;;;;;;;7.93;1.90;;;;;;;;;;3366497;42;20585;-53
2022/07/06 05:18:17;;;;;;;7.75;1.40;;;;;;;;;;3370563;42;20080;-48
2022/07/06 05:20:44;;;;;;;5.80;1.63;;;;;;;;;;3366744;42;20513;-51
2022/07/06 05:23:09;;;;;;;5.78;1.25;;;;;;;;;;3345207;42;20102;-53
2022/07/06 05:25:36;;;;;;;5.20;1.20;;;;;;;;;;3370246;42;20087;-53
2022/07/06 05:28:03;;;;;;;6.28;1.23;;;;;;;;;;3370909;42;20091;-52
2022/07/06 05:30:29;;;;;;;4.85;1.50;;;;;;;;;;3372336;42;20144;-50
2022/07/06 05:32:54;;;;;;;6.15;1.60;;;;;;;;;;3370282;42;20107;-51
2022/07/06 05:35:20;;;;;;;5.63;1.23;;;;;;;;;;3369835;42;20091;-59
2022/07/06 05:37:46;;;;;;;5.45;1.48;;;;;;;;;;3370374;42;20258;-47
2022/07/06 05:40:12;;;;;;;5.93;1.20;;;;;;;;;;3370386;42;20547;-52
2022/07/06 05:42:39;;;;;;;5.23;1.43;;;;;;;;;;3369231;42;20091;-48
2022/07/06 05:45:06;;;;;;;5.17;1.83;;;;;;;;;;3371055;42;20297;-56
2022/07/06 05:50:17;;;;;;;5.18;1.20;;;;;;;;;;3370775;42;20108;-52
2022/07/06 05:52:44;;;;;;;4.57;1.20;;;;;;;;;;3370187;42;20110;-52
2022/07/06 05:55:11;;;;;;;4.75;1.30;;;;;;;;;;3368976;42;20111;-51
2022/07/06 05:57:37;;;;;;;4.77;1.30;;;;;;;;;;3368207;42;20091;-51
2022/07/06 06:00:07;;;;;;;3.70;1.10;;;;;;;;;;3366330;42;20194;-50
2022/07/06 06:02:37;;;;;;;3.80;1.20;;;;;;;;;;3365103;42;20527;-47
2022/07/06 06:05:05;;;;;;;6.57;1.23;;;;;;;;;;3364754;42;20143;-51
2022/07/06 06:07:33;;;;;;;5.13;1.20;;;;;;;;;;3364687;42;20096;-52
2022/07/06 06:09:59;;;;;;;4.90;1.30;;;;;;;;;;3352554;42;20570;-54
2022/07/06 06:12:25;;;;;;;4.70;1.48;;;;;;;;;;3362976;42;20092;-58
2022/07/06 06:14:51;;;;;;;7.47;1.50;;;;;;;;;;3358160;42;20095;-58
2022/07/06 06:17:16;;;;;;;5.20;1.70;;;;;;;;;;3364506;42;20102;-54
2022/07/06 06:19:42;;;;;;;3.97;1.20;;;;;;;;;;3357830;42;20167;-57
2022/07/06 06:22:08;;;;;;;5.25;1.20;;;;;;;;;;3359873;42;20088;-57
2022/07/06 06:24:34;;;;;;;3.88;1.15;;;;;;;;;;3363140;42;20852;-55
2022/07/06 06:27:00;;;;;;;4.17;1.10;;;;;;;;;;3359377;42;20150;-56
2022/07/06 06:29:26;;;;;;;4.90;1.27;;;;;;;;;;3357394;42;20471;-50
2022/07/06 06:31:52;;;;;;;5.47;1.10;;;;;;;;;;3363103;42;20086;-54
2022/07/06 06:34:18;;;;;;;4.95;1.15;;;;;;;;;;3356923;42;20101;-56
2022/07/06 06:36:44;;;;;;;8.30;1.50;;;;;;;;;;3361426;42;20142;-54
2022/07/06 06:39:10;;;;;;;6.07;1.23;;;;;;;;;;3362380;42;20154;-55
2022/07/06 06:41:36;;;;;;;6.05;1.10;;;;;;;;;;3364223;42;20088;-55
2022/07/06 06:44:02;;;;;;;5.07;1.30;;;;;;;;;;3358711;42;20091;-55
2022/07/06 06:46:28;;;;;;;5.55;1.30;;;;;;;;;;3362241;42;20111;-51
2022/07/06 06:48:54;;;;;;;4.22;1.10;;;;;;;;;;3356215;42;20102;-56
2022/07/06 06:51:20;;;;;;;5.93;1.50;;;;;;;;;;3362445;42;20124;-58
2022/07/06 06:53:47;;;;;;;6.00;1.40;;;;;;;;;;3345321;42;20280;-52
2022/07/06 06:56:13;;;;;;;4.93;1.30;;;;;;;;;;3355705;42;20100;-54
2022/07/06 06:58:38;;;;;;;5.53;1.40;;;;;;;;;;3356700;42;20084;-52
2022/07/06 07:01:04;;;;;;;5.80;1.38;;;;;;;;;;3365739;42;20098;-53
2022/07/06 07:03:31;;;;;;;6.17;1.40;;;;;;;;;;3361875;42;20134;-57
2022/07/06 07:05:57;;;;;;;3.45;1.10;;;;;;;;;;3366917;42;20102;-52
2022/07/06 07:08:23;;;;;;;3.83;1.10;;;;;;;;;;3365938;42;20613;-57
2022/07/06 07:10:49;;;;;;;5.72;1.30;;;;;;;;;;3365301;42;20096;-58
2022/07/06 07:13:15;;;;;;;5.97;1.13;;;;;;;;;;3366331;42;20246;-57
2022/07/06 07:15:41;;;;;;;4.07;1.17;;;;;;;;;;3365982;42;20257;-58
2022/07/06 07:18:07;;;;;;;6.28;1.10;;;;;;;;;;3365962;42;20519;-57
2022/07/06 07:20:33;;;;;;;6.00;1.17;;;;;;;;;;3366057;42;20146;-59
2022/07/06 07:23:00;;;;;;;3.65;1.08;;;;;;;;;;3366160;42;20151;-58
2022/07/06 07:25:26;;;;;;;4.60;1.30;;;;;;;;;;3365976;42;20501;-58
2022/07/06 07:27:52;;;;;;;5.60;1.20;;;;;;;;;;3362626;42;20598;-58
2022/07/06 07:30:18;;;;;;;4.10;1.20;;;;;;;;;;3365880;42;20636;-58
2022/07/06 07:32:44;;;;;;;8.60;1.13;;;;;;;;;;3365525;42;20095;-60
2022/07/06 07:35:10;;;;;;;4.00;1.20;;;;;;;;;;3365514;42;20721;-56
2022/07/06 07:37:36;;;;;;;5.32;1.10;;;;;;;;;;3356900;42;20096;-57
2022/07/06 07:40:02;;;;;;;6.05;1.38;;;;;;;;;;3357140;42;20178;-58
2022/07/06 07:42:28;;;;;;;4.53;1.23;;;;;;;;;;3365926;42;20155;-58
2022/07/06 07:44:54;;;;;;;5.23;1.13;;;;;;;;;;3365934;42;20096;-57
2022/07/06 07:47:20;;;;;;;7.13;1.60;;;;;;;;;;3365561;42;20088;-57
2022/07/06 07:49:46;;;;;;;4.60;1.25;;;;;;;;;;3358689;42;20577;-58
2022/07/06 07:52:12;;;;;;;4.22;1.20;;;;;;;;;;3367211;42;20593;-55
2022/07/06 07:54:38;;;;;;;4.97;1.50;;;;;;;;;;3364864;42;20568;-55
2022/07/06 07:57:04;;;;;;;7.15;1.25;;;;;;;;;;3366969;42;20095;-55
2022/07/06 07:59:30;;;;;;;6.95;1.65;;;;;;;;;;3366552;42;20566;-56
2022/07/06 08:01:56;;;;;;;4.90;1.40;;;;;;;;;;3366996;42;20158;-59
2022/07/06 08:04:22;;;;;;;7.60;1.27;;;;;;;;;;3367179;42;20095;-57
2022/07/06 08:06:48;;;;;;;5.83;1.37;;;;;;;;;;3367492;42;20096;-56
2022/07/06 08:09:16;;;;;;;4.15;1.15;;;;;;;;;;3366671;42;20099;-56
2022/07/06 08:11:42;;;;;;;5.30;1.30;;;;;;;;;;3353344;42;20155;-57
2022/07/06 08:14:08;;;;;;;5.93;1.25;;;;;;;;;;3367254;42;20603;-56
2022/07/06 08:16:34;;;;;;;4.90;1.30;;;;;;;;;;3366739;42;20602;-58
2022/07/06 08:19:00;;;;;;;4.43;1.25;;;;;;;;;;3365559;42;20128;-57
2022/07/06 08:21:26;;;;;;;5.88;1.23;;;;;;;;;;3366496;42;20103;-56
2022/07/06 08:23:53;;;;;;;5.53;1.60;;;;;;;;;;3366066;42;20688;-55
2022/07/06 08:26:19;;;;;;;4.93;1.60;;;;;;;;;;3366692;42;20095;-57
2022/07/06 08:28:45;;;;;;;6.05;1.23;;;;;;;;;;3367488;42;20173;-50
2022/07/06 08:31:11;;;;;;;6.85;1.30;;;;;;;;;;3367177;42;20084;-54
2022/07/06 08:33:37;;;;;;;4.30;1.15;;;;;;;;;;3366706;42;20102;-57
2022/07/06 08:36:03;;;;;;;6.83;1.30;;;;;;;;;;3366961;42;20084;-54
2022/07/06 08:38:29;;;;;;;5.40;1.30;;;;;;;;;;3367879;42;20080;-51
2022/07/06 08:40:54;;;;;;;4.80;1.30;;;;;;;;;;3368780;42;20088;-57
2022/07/06 08:43:21;;;;;;;6.07;1.43;;;;;;;;;;3367305;42;20094;-52
2022/07/06 08:45:47;;;;;;;6.10;1.30;;;;;;;;;;3358119;42;20353;-55
2022/07/06 08:48:13;;;;;;;3.97;1.30;;;;;;;;;;3366769;42;20088;-54
2022/07/06 08:50:39;;;;;;;5.13;1.40;;;;;;;;;;3366512;42;20166;-52
2022/07/06 08:53:05;;;;;;;4.50;1.40;;;;;;;;;;3366262;42;20104;-52
2022/07/06 08:55:31;;;;;;;5.23;1.30;;;;;;;;;;3366795;42;20134;-50
2022/07/06 08:57:57;;;;;;;4.55;1.30;;;;;;;;;;3366644;42;20158;-52
2022/07/06 09:00:24;;;;;;;5.75;1.45;;;;;;;;;;3366550;42;20139;-55
2022/07/06 09:02:50;;;;;;;5.97;1.63;;;;;;;;;;3366953;42;20509;-55
2022/07/06 09:05:17;;;;;;;6.35;1.50;;;;;;;;;;3352819;42;20092;-52
2022/07/06 09:07:45;;;;;;;6.23;1.20;;;;;;;;;;3344597;42;20135;-55
2022/07/06 09:10:11;;;;;;;4.47;1.20;;;;;;;;;;3354036;42;20572;-54
2022/07/06 09:12:37;;;;;;;6.80;1.20;;;;;;;;;;3352781;42;20076;-56
2022/07/06 09:15:04;;;;;;;5.13;1.23;;;;;;;;;;3366335;42;20704;-55
2022/07/06 09:17:30;;;;;;;4.38;1.30;;;;;;;;;;3366493;42;20513;-51
2022/07/06 09:19:56;;;;;;;7.80;1.37;;;;;;;;;;3366583;42;20094;-53
2022/07/06 09:22:31;;;;;;;4.82;1.10;;;;;;;;;;3365801;42;20096;-55
2022/07/06 09:25:07;;;;;;;5.28;1.30;;;;;;;;;;3366640;42;20094;-56
2022/07/06 09:27:38;;;;;;;4.68;1.20;;;;;;;;;;3366495;42;20092;-55
2022/07/06 09:30:04;;;;;;;6.40;1.33;;;;;;;;;;3366169;42;20088;-53
2022/07/06 09:32:31;;;;;;;6.63;1.60;;;;;;;;;;3354283;42;20087;-51
2022/07/06 09:34:57;;;;;;;7.03;1.30;;;;;;;;;;3369209;42;20092;-55
2022/07/06 09:37:25;;;;;;;6.20;1.20;;;;;;;;;;3370081;42;20091;-54
2022/07/06 09:39:52;;;;;;;6.07;1.60;;;;;;;;;;3369227;42;20092;-56
2022/07/06 09:42:18;;;;;;;4.83;1.10;;;;;;;;;;3368882;42;20139;-56
2022/07/06 09:44:44;;;;;;;4.88;1.25;;;;;;;;;;3353006;42;20114;-56
2022/07/06 09:47:11;;;;;;;5.95;1.55;;;;;;;;;;3370164;42;20107;-58
2022/07/06 09:49:38;;;;;;;6.50;1.30;;;;;;;;;;3359490;42;20095;-56
2022/07/06 09:52:08;;;;;;;4.00;1.20;;;;;;;;;;3367711;42;20182;-57
2022/07/06 09:54:34;;;;;;;4.00;1.20;;;;;;;;;;3369863;42;20087;-63
2022/07/06 09:57:00;;;;;;;7.88;1.35;;;;;;;;;;3370416;42;20076;-55
2022/07/06 09:59:30;;;;;;;4.93;1.35;;;;;;;;;;3365375;42;20096;-56
2022/07/06 10:02:04;;;;;;;4.18;1.17;;;;;;;;;;3348753;42;20622;-56
2022/07/06 10:04:30;;;;;;;5.15;1.20;;;;;;;;;;3351442;42;20127;-55
2022/07/06 10:06:57;;;;;;;4.00;1.27;;;;;;;;;;3357294;42;20098;-53
2022/07/06 10:09:24;;;;;;;4.25;1.20;;;;;;;;;;3342944;42;20103;-55
2022/07/06 10:11:51;;;;;;;6.55;1.75;;;;;;;;;;3341872;42;20088;-58
2022/07/06 10:14:22;;;;;;;6.05;1.35;;;;;;;;;;3357918;42;20163;-54
2022/07/06 10:16:48;;;;;;;6.85;1.50;;;;;;;;;;3357423;42;20111;-51
2022/07/06 10:19:15;;;;;;;8.83;1.30;;;;;;;;;;3357163;42;20186;-55
2022/07/06 10:21:41;;;;;;;4.63;1.20;;;;;;;;;;3357357;42;20519;-53
2022/07/06 10:24:08;;;;;;;5.07;1.20;;;;;;;;;;3340649;42;20103;-57
2022/07/06 10:26:35;;;;;;;4.45;1.20;;;;;;;;;;3347892;42;20155;-55
2022/07/06 10:29:01;;;;;;;4.20;1.20;;;;;;;;;;3359661;42;20088;-53
2022/07/06 10:31:31;;;;;;;6.50;1.40;;;;;;;;;;3353629;42;20207;-52
2022/07/06 10:33:58;;;;;;;4.43;1.30;;;;;;;;;;3349833;42;20143;-55
2022/07/06 10:36:24;;;;;;;4.97;1.45;;;;;;;;;;3347887;42;20581;-58
2022/07/06 10:38:51;;;;;;;7.38;1.40;;;;;;;;;;3354290;42;20151;-55
2022/07/06 10:41:18;;;;;;;5.63;1.30;;;;;;;;;;3346588;42;20080;-57
2022/07/06 10:43:48;;;;;;;8.33;1.30;;;;;;;;;;3361614;42;20092;-57
2022/07/06 10:46:17;;;;;;;6.93;1.70;;;;;;;;;;3362677;42;20083;-54
2022/07/06 10:48:44;;;;;;;5.85;1.50;;;;;;;;;;3362189;42;20185;-54
2022/07/06 10:51:23;;;;;;;4.78;1.23;;;;;;;;;;3353874;42;20158;-55
2022/07/06 10:54:04;;;;;;;6.20;1.95;;;;;;;;;;3354499;42;20095;-55
2022/07/06 10:56:36;;;;;;;4.77;1.40;;;;;;;;;;3356871;42;20084;-58
2022/07/06 10:59:13;;;;;;;5.05;1.30;;;;;;;;;;3353364;42;20608;-58
2022/07/06 11:01:39;;;;;;;4.30;1.33;;;;;;;;;;3363827;42;20567;-57
2022/07/06 11:04:06;;;;;;;6.28;1.33;;;;;;;;;;3363512;42;20592;-56
2022/07/06 11:06:32;;;;;;;4.68;1.10;;;;;;;;;;3363898;42;20079;-53
2022/07/06 11:09:02;;;;;;;5.23;1.30;;;;;;;;;;3351306;42;20081;-56
2022/07/06 11:11:31;;;;;;;5.03;1.33;;;;;;;;;;3363325;42;20080;-56
2022/07/06 11:14:06;;;;;;;4.82;1.20;;;;;;;;;;3364470;42;20096;-57
2022/07/06 11:16:48;;;;;;;4.50;1.30;;;;;;;;;;3363108;42;20095;-58
2022/07/06 11:19:18;;;;;;;7.40;1.58;;;;;;;;;;3348623;42;20088;-56
2022/07/06 11:21:48;;;;;;;5.53;1.27;;;;;;;;;;3357494;42;20135;-50
2022/07/06 11:24:18;;;;;;;4.72;1.30;;;;;;;;;;3349166;42;20511;-57
2022/07/06 11:26:46;;;;;;;4.82;1.30;;;;;;;;;;3358202;42;20088;-54
2022/07/06 11:29:12;;;;;;;4.22;1.20;;;;;;;;;;3357519;42;20080;-56
2022/07/06 11:31:42;;;;;;;6.18;1.40;;;;;;;;;;3356879;42;20091;-52
2022/07/06 11:34:09;;;;;;;6.37;1.40;;;;;;;;;;3355977;42;20150;-59
2022/07/06 11:36:35;;;;;;;5.13;1.25;;;;;;;;;;3354908;42;20097;-55
2022/07/06 11:39:01;;;;;;;6.38;1.20;;;;;;;;;;3343573;42;20159;-56
2022/07/06 11:41:27;;;;;;;5.78;1.60;;;;;;;;;;3358251;42;20506;-53
2022/07/06 11:43:53;;;;;;;4.17;1.27;;;;;;;;;;3348435;42;20563;-57
2022/07/06 11:46:36;;;;;;;6.72;1.40;;;;;;;;;;3347697;42;20136;-58
2022/07/06 11:49:06;;;;;;;4.00;1.25;;;;;;;;;;3351183;42;20123;-56
2022/07/06 11:51:37;;;;;;;4.20;1.23;;;;;;;;;;3335144;42;20561;-55
2022/07/06 11:54:12;;;;;;;4.82;1.20;;;;;;;;;;3354650;42;20139;-52
2022/07/06 11:56:45;;;;;;;4.23;1.07;;;;;;;;;;3358151;42;20730;-58
2022/07/06 11:59:11;;;;;;;4.13;1.30;;;;;;;;;;3344003;42;20115;-57
2022/07/06 12:01:41;;;;;;;5.50;1.30;;;;;;;;;;3366555;42;20186;-60
2022/07/06 12:04:07;;;;;;;4.15;1.33;;;;;;;;;;3351615;42;20505;-56
2022/07/06 12:06:33;;;;;;;5.38;1.58;;;;;;;;;;3369793;42;20593;-58
2022/07/06 12:09:03;;;;;;;4.30;1.40;;;;;;;;;;3366499;42;20586;-56
2022/07/06 12:11:31;;;;;;;4.93;1.20;;;;;;;;;;3358003;42;20084;-55
2022/07/06 12:13:58;;;;;;;4.00;1.30;;;;;;;;;;3367010;42;20099;-58
2022/07/06 12:16:34;;;;;;;4.57;1.52;;;;;;;;;;3366896;42;20539;-53
2022/07/06 12:19:02;;;;;;;4.43;1.40;;;;;;;;;;3366359;42;20083;-52
2022/07/06 12:21:27;;;;;;;8.20;1.60;;;;;;;;;;3366468;42;20095;-56
2022/07/06 12:23:54;;;;;;;6.63;1.40;;;;;;;;;;3344781;42;20745;-58
2022/07/06 12:26:24;;;;;;;4.85;1.30;;;;;;;;;;3366957;42;20102;-54
2022/07/06 12:29:09;;;;;;;5.15;1.50;;;;;;;;;;3351024;42;20166;-55
2022/07/06 12:31:43;;;;;;;5.20;1.40;;;;;;;;;;3366446;42;20096;-54
2022/07/06 12:34:22;;;;;;;4.97;1.40;;;;;;;;;;3366789;42;20475;-55
2022/07/06 12:36:53;;;;;;;7.55;1.30;;;;;;;;;;3366769;42;20084;-52
2022/07/06 12:39:24;;;;;;;4.50;1.30;;;;;;;;;;3366706;42;20557;-56
2022/07/06 12:41:51;;;;;;;6.38;1.48;;;;;;;;;;3367037;42;20115;-57
2022/07/06 12:44:20;;;;;;;4.20;1.20;;;;;;;;;;3364847;42;20098;-53
2022/07/06 12:46:46;;;;;;;6.50;1.60;;;;;;;;;;3366399;42;20162;-54
2022/07/06 12:49:17;;;;;;;5.15;1.52;;;;;;;;;;3366615;42;20186;-57
2022/07/06 12:52:14;;;;;;;5.05;1.58;;;;;;;;;;3367432;42;20637;-57
2022/07/06 12:54:40;;;;;;;6.65;1.50;;;;;;;;;;3362540;42;20111;-54
2022/07/06 12:57:14;;;;;;;4.73;1.40;;;;;;;;;;3366413;42;20090;-54
2022/07/06 13:00:02;;;;;;;4.30;1.23;;;;;;;;;;3367957;42;20151;-54
2022/07/06 13:02:36;;;;;;;4.70;1.50;;;;;;;;;;3361946;42;20513;-57
2022/07/06 13:05:03;;;;;;;8.30;1.50;;;;;;;;;;3356175;42;20098;-53
2022/07/06 13:07:35;;;;;;;5.57;1.60;;;;;;;;;;3367525;42;20131;-54
2022/07/06 13:10:05;;;;;;;5.60;1.30;;;;;;;;;;3366640;42;20514;-55
2022/07/06 13:12:30;;;;;;;6.60;1.70;;;;;;;;;;3365719;42;20530;-56
2022/07/06 13:14:57;;;;;;;5.80;1.45;;;;;;;;;;3366464;42;20099;-56
2022/07/06 13:17:22;;;;;;;5.78;1.20;;;;;;;;;;3366818;42;20114;-55
2022/07/06 13:19:49;;;;;;;4.35;1.30;;;;;;;;;;3366001;42;20096;-55
2022/07/06 13:22:15;;;;;;;9.93;1.60;;;;;;;;;;3366367;42;20099;-58
2022/07/06 13:24:41;;;;;;;4.20;1.20;;;;;;;;;;3366187;42;20092;-55
2022/07/06 13:27:07;;;;;;;8.02;1.17;;;;;;;;;;3366257;42;20637;-57
2022/07/06 13:29:33;;;;;;;7.70;1.48;;;;;;;;;;3357843;42;20104;-55
2022/07/06 13:31:59;;;;;;;5.20;1.60;;;;;;;;;;3357735;42;20119;-53
2022/07/06 13:34:25;;;;;;;5.70;1.40;;;;;;;;;;3365550;42;20087;-53
2022/07/06 13:36:52;;;;;;;7.07;1.35;;;;;;;;;;3366393;42;20549;-55
2022/07/06 13:39:18;;;;;;;6.05;1.20;;;;;;;;;;3365718;42;20103;-58
2022/07/06 13:41:44;;;;;;;4.43;1.25;;;;;;;;;;3366156;42;20646;-56
2022/07/06 13:44:11;;;;;;;4.30;1.30;;;;;;;;;;3365626;42;20305;-56
2022/07/06 13:46:39;;;;;;;4.88;1.20;;;;;;;;;;3366011;42;20564;-55
2022/07/06 13:49:05;;;;;;;4.78;1.30;;;;;;;;;;3350852;42;20531;-55
2022/07/06 13:51:32;;;;;;;5.57;1.50;;;;;;;;;;3366742;42;20516;-56
2022/07/06 13:54:01;;;;;;;4.20;1.30;;;;;;;;;;3366263;42;20103;-59
2022/07/06 13:56:27;;;;;;;4.70;1.20;;;;;;;;;;3361787;42;20554;-60
2022/07/06 13:58:53;;;;;;;3.85;1.20;;;;;;;;;;3366124;42;20099;-58
2022/07/06 14:01:19;;;;;;;5.88;1.35;;;;;;;;;;3366277;42;20095;-58
2022/07/06 14:03:45;;;;;;;5.55;1.35;;;;;;;;;;3366005;42;20134;-57
2022/07/06 14:06:11;;;;;;;6.28;1.50;;;;;;;;;;3365663;42;20102;-56
2022/07/06 14:08:38;;;;;;;5.20;1.30;;;;;;;;;;3349204;42;20132;-57
2022/07/06 14:11:05;;;;;;;4.95;1.55;;;;;;;;;;3358624;42;20100;-60
2022/07/06 14:13:31;;;;;;;7.72;1.50;;;;;;;;;;3365117;42;20099;-58
2022/07/06 14:15:57;;;;;;;6.88;1.40;;;;;;;;;;3365432;42;20084;-56
2022/07/06 14:18:23;;;;;;;4.97;1.38;;;;;;;;;;3365009;42;20659;-58
2022/07/06 14:20:51;;;;;;;5.87;1.50;;;;;;;;;;3351990;42;20135;-58
2022/07/06 14:23:17;;;;;;;10.23;1.70;;;;;;;;;;3362836;42;20084;-56
2022/07/06 14:25:43;;;;;;;5.85;1.30;;;;;;;;;;3358163;42;20588;-59
2022/07/06 14:28:09;;;;;;;6.05;1.27;;;;;;;;;;3356945;42;20143;-58
2022/07/06 14:30:39;;;;;;;4.45;1.55;;;;;;;;;;3343137;42;20157;-60
2022/07/06 14:33:07;;;;;;;4.97;1.37;;;;;;;;;;3357554;42;20135;-59
2022/07/06 14:35:39;;;;;;;4.95;1.30;;;;;;;;;;3351190;42;20187;-56
2022/07/06 14:38:06;;;;;;;5.90;1.40;;;;;;;;;;3361103;42;20205;-58
2022/07/06 14:40:32;;;;;;;4.95;1.40;;;;;;;;;;3365921;42;20092;-54
2022/07/06 14:42:58;;;;;;;4.63;1.50;;;;;;;;;;3366178;42;20142;-56
2022/07/06 14:45:25;;;;;;;4.43;1.30;;;;;;;;;;3350942;42;20607;-57